createdAt,value
2023-01-05T00:01:03.079Z,100447.06
2023-01-05T00:03:30.977Z,100452.34
2023-01-05T00:06:02.391Z,100445.47
2023-01-05T00:08:36.722Z,100456.97
2023-01-05T00:11:24.708Z,100464.78
2023-01-05T00:14:09.917Z,100449.94
2023-01-05T00:16:55.076Z,100459.53
2023-01-05T00:19:40.584Z,100453.06
2023-01-05T00:22:29.769Z,100453.06
2023-01-05T00:24:57.527Z,100453.06
2023-01-05T00:27:26.965Z,100443.56
2023-01-05T00:29:56.135Z,100447.09
2023-01-05T00:32:24.212Z,100451.88
2023-01-05T00:34:54.403Z,100456.81
2023-01-05T00:37:22.292Z,100433.84
2023-01-05T00:39:50.246Z,100451.44
2023-01-05T00:42:18.145Z,100457.56
2023-01-05T00:44:47.489Z,100456.91
2023-01-05T00:47:15.376Z,100463.94
2023-01-05T00:49:43.222Z,100457.75
2023-01-05T00:52:11.246Z,100456.03
2023-01-05T00:54:39.079Z,100463.94
2023-01-05T00:57:07.515Z,100462.22
2023-01-05T00:59:35.354Z,100483.28
2023-01-05T01:02:05.766Z,100478.28
2023-01-05T01:04:34.105Z,100472.34
2023-01-05T01:07:02.512Z,100476.28
2023-01-05T01:09:30.628Z,100466.44
2023-01-05T01:11:58.635Z,100477.59
2023-01-05T01:14:26.715Z,100480.34
2023-01-05T01:16:54.705Z,100461.84
2023-01-05T01:19:25.723Z,100463.03
2023-01-05T01:21:53.806Z,100465.94
2023-01-05T01:24:24.629Z,100484.91
2023-01-05T01:26:52.651Z,100477.53
2023-01-05T01:29:21.106Z,100487.41
2023-01-05T01:31:50.069Z,100480.44
2023-01-05T01:34:18.148Z,100482.06
2023-01-05T01:36:47.450Z,100481.31
2023-01-05T01:39:15.931Z,100482.06
2023-01-05T01:41:44.133Z,100481.91
2023-01-05T01:44:49.278Z,100484.56
2023-01-05T01:47:20.032Z,100499.06
2023-01-05T01:49:48.003Z,100516.81
2023-01-05T01:52:17.130Z,100494.34
2023-01-05T01:54:45.210Z,100508.94
2023-01-05T01:57:14.022Z,100518.41
2023-01-05T01:59:42.122Z,100535.19
2023-01-05T02:02:10.269Z,100519.25
2023-01-05T02:04:38.880Z,100531.41
2023-01-05T02:07:08.979Z,100525.03
2023-01-05T02:09:38.448Z,100522.94
2023-01-05T02:12:08.624Z,100538.44
2023-01-05T02:14:41.784Z,100530.88
2023-01-05T02:17:19.297Z,100531.72
2023-01-05T02:20:14.920Z,100533.38
2023-01-05T02:23:07.036Z,100535.00
2023-01-05T02:26:11.346Z,100526.44
2023-01-05T02:28:55.797Z,100529.75
2023-01-05T02:31:27.421Z,100519.38
2023-01-05T02:34:07.514Z,100529.28
2023-01-05T02:36:38.594Z,100535.31
2023-01-05T02:39:11.483Z,100536.75
2023-01-05T02:41:43.029Z,100523.69
2023-01-05T02:44:11.278Z,100529.72
2023-01-05T02:46:40.492Z,100528.47
2023-01-05T02:49:08.724Z,100532.56
2023-01-05T02:51:39.596Z,100543.34
2023-01-05T02:54:11.139Z,100539.25
2023-01-05T02:56:42.680Z,100527.09
2023-01-05T02:59:15.465Z,100557.00
2023-01-05T03:01:48.643Z,100550.84
2023-01-05T03:04:22.928Z,100543.00
2023-01-05T03:06:56.814Z,100548.69
2023-01-05T03:09:28.303Z,100552.88
2023-01-05T03:12:17.157Z,100547.53
2023-01-05T03:14:47.724Z,100544.31
2023-01-05T03:17:28.235Z,100547.81
2023-01-05T03:19:56.947Z,100539.97
2023-01-05T03:22:45.499Z,100542.00
2023-01-05T03:25:31.983Z,100552.16
2023-01-05T03:28:17.489Z,100538.78
2023-01-05T03:31:09.207Z,100545.16
2023-01-05T03:34:02.086Z,100550.56
2023-01-05T03:36:31.361Z,100545.56
2023-01-05T03:39:00.505Z,100543.91
2023-01-05T03:41:28.415Z,100559.97
2023-01-05T03:43:57.527Z,100551.72
2023-01-05T03:46:25.580Z,100552.78
2023-01-05T03:48:54.917Z,100548.59
2023-01-05T03:51:22.843Z,100562.06
2023-01-05T03:53:50.742Z,100553.59
2023-01-05T03:56:18.312Z,100555.84
2023-01-05T03:58:46.107Z,100563.66
2023-01-05T04:01:14.030Z,100564.31
2023-01-05T04:03:42.071Z,100565.69
2023-01-05T04:06:11.520Z,100574.56
2023-01-05T04:08:39.494Z,100580.56
2023-01-05T04:11:18.357Z,100561.22
2023-01-05T04:13:46.075Z,100566.16
2023-01-05T04:16:14.540Z,100565.75
2023-01-05T04:18:42.181Z,100575.25
2023-01-05T04:21:11.467Z,100568.91
2023-01-05T04:23:39.460Z,100561.09
2023-01-05T04:26:07.426Z,100573.25
2023-01-05T04:28:35.263Z,100579.00
2023-01-05T04:31:03.093Z,100575.69
2023-01-05T04:33:31.113Z,100570.34
2023-01-05T04:35:59.054Z,100582.09
2023-01-05T04:38:28.449Z,100577.53
2023-01-05T04:40:56.413Z,100584.78
2023-01-05T04:43:24.224Z,100584.13
2023-01-05T04:45:51.963Z,100585.59
2023-01-05T04:48:20.069Z,100593.00
2023-01-05T04:50:53.858Z,100588.88
2023-01-05T04:53:22.638Z,100588.06
2023-01-05T04:55:52.439Z,100587.06
2023-01-05T04:58:20.402Z,100577.00
2023-01-05T05:00:49.655Z,100580.31
2023-01-05T05:03:17.660Z,100567.38
2023-01-05T05:05:45.480Z,100566.53
2023-01-05T05:08:13.671Z,100569.03
2023-01-05T05:10:42.357Z,100565.50
2023-01-05T05:13:11.707Z,100573.13
2023-01-05T05:15:39.775Z,100579.09
2023-01-05T05:18:09.572Z,100577.03
2023-01-05T05:20:37.703Z,100589.38
2023-01-05T05:23:05.496Z,100600.91
2023-01-05T05:25:33.258Z,100594.75
2023-01-05T05:28:01.020Z,100594.31
2023-01-05T05:30:30.300Z,100602.97
2023-01-05T05:32:58.273Z,100605.44
2023-01-05T05:35:26.069Z,100604.97
2023-01-05T05:37:56.543Z,100613.03
2023-01-05T05:40:26.245Z,100609.53
2023-01-05T05:42:54.087Z,100607.06
2023-01-05T05:45:22.031Z,100617.75
2023-01-05T05:47:51.376Z,100620.44
2023-01-05T05:50:19.377Z,100614.88
2023-01-05T05:52:47.256Z,100622.31
2023-01-05T05:55:15.111Z,100623.56
2023-01-05T05:57:42.788Z,100628.31
2023-01-05T06:00:11.783Z,100625.22
2023-01-05T06:02:40.043Z,100627.28
2023-01-05T06:05:10.521Z,100633.44
2023-01-05T06:07:38.327Z,100621.31
2023-01-05T06:10:06.939Z,100633.66
2023-01-05T06:12:34.973Z,100622.78
2023-01-05T06:15:02.987Z,100630.16
2023-01-05T06:17:30.760Z,100621.50
2023-01-05T06:19:58.636Z,100632.63
2023-01-05T06:22:27.960Z,100632.63
2023-01-05T06:24:55.763Z,100638.41
2023-01-05T06:27:23.682Z,100634.06
2023-01-05T06:29:51.585Z,100626.88
2023-01-05T06:32:19.355Z,100631.00
2023-01-05T06:34:47.335Z,100631.00
2023-01-05T06:37:15.320Z,100630.34
2023-01-05T06:39:44.522Z,100641.88
2023-01-05T06:42:12.476Z,100638.81
2023-01-05T06:44:40.364Z,100643.31
2023-01-05T06:47:08.159Z,100647.25
2023-01-05T06:49:35.894Z,100666.78
2023-01-05T06:52:03.642Z,100663.31
2023-01-05T06:54:31.303Z,100667.41
2023-01-05T06:57:01.500Z,100674.41
2023-01-05T06:59:30.371Z,100679.56
2023-01-05T07:01:58.180Z,100677.91
2023-01-05T07:04:25.994Z,100679.56
2023-01-05T07:06:53.790Z,100699.31
2023-01-05T07:09:21.675Z,100703.84
2023-01-05T07:11:49.563Z,100700.97
2023-01-05T07:14:19.274Z,100712.09
2023-01-05T07:16:47.213Z,100720.09
2023-01-05T07:19:15.277Z,100713.31
2023-01-05T07:21:43.054Z,100702.78
2023-01-05T07:24:11.308Z,100714.75
2023-01-05T07:26:39.285Z,100714.13
2023-01-05T07:29:06.793Z,100715.78
2023-01-05T07:31:35.878Z,100709.59
2023-01-05T07:34:03.693Z,100721.53
2023-01-05T07:36:31.608Z,100721.94
2023-01-05T07:38:59.723Z,100730.41
2023-01-05T07:41:27.495Z,100731.44
2023-01-05T07:43:55.195Z,100735.13
2023-01-05T07:46:22.865Z,100739.66
2023-01-05T07:48:52.059Z,100737.19
2023-01-05T07:51:19.956Z,100735.56
2023-01-05T07:53:47.712Z,100736.56
2023-01-05T07:56:15.822Z,100743.78
2023-01-05T07:58:43.781Z,100744.81
2023-01-05T08:01:13.278Z,100748.28
2023-01-05T08:03:41.280Z,100758.59
2023-01-05T08:06:25.486Z,100751.16
2023-01-05T08:08:53.386Z,100763.34
2023-01-05T08:11:22.071Z,100769.53
2023-01-05T08:14:02.932Z,100770.97
2023-01-05T08:16:32.368Z,100777.56
2023-01-05T08:19:00.688Z,100780.84
2023-01-05T08:21:29.976Z,100784.75
2023-01-05T08:23:59.895Z,100781.25
2023-01-05T08:26:27.806Z,100779.22
2023-01-05T08:28:55.753Z,100784.56
2023-01-05T08:31:26.071Z,100778.38
2023-01-05T08:33:57.939Z,100786.63
2023-01-05T08:36:26.326Z,100783.53
2023-01-05T08:38:56.509Z,100792.38
2023-01-05T08:41:27.861Z,100791.56
2023-01-05T08:43:57.070Z,100802.88
2023-01-05T08:46:26.759Z,100800.59
2023-01-05T08:48:56.779Z,100805.16
2023-01-05T08:51:24.909Z,100815.47
2023-01-05T08:53:53.205Z,100815.06
2023-01-05T08:56:25.351Z,100827.81
2023-01-05T08:58:55.700Z,100825.53
2023-01-05T09:01:23.848Z,100821.22
2023-01-05T09:03:52.145Z,100825.78
2023-01-05T09:06:20.994Z,100830.28
2023-01-05T09:08:49.240Z,100827.41
2023-01-05T09:11:19.299Z,100841.41
2023-01-05T09:13:49.992Z,100844.72
2023-01-05T09:16:42.476Z,100838.97
2023-01-05T09:19:08.179Z,100847.63
2023-01-05T09:21:36.215Z,100849.47
2023-01-05T09:24:04.682Z,100855.25
2023-01-05T09:26:32.632Z,100848.88
2023-01-05T09:29:01.966Z,100860.63
2023-01-05T09:31:29.761Z,100851.75
2023-01-05T09:33:58.715Z,100862.88
2023-01-05T09:36:26.767Z,100867.00
2023-01-05T09:38:56.304Z,100864.94
2023-01-05T09:41:27.684Z,100871.97
2023-01-05T09:43:58.041Z,100885.97
2023-01-05T09:46:30.501Z,100889.47
2023-01-05T09:49:00.416Z,100909.44
2023-01-05T09:51:28.528Z,100919.56
2023-01-05T09:53:56.380Z,100920.16
2023-01-05T09:57:07.271Z,100928.03
2023-01-05T09:59:19.827Z,100932.53
2023-01-05T10:01:49.742Z,100925.13
2023-01-05T10:04:22.864Z,100917.91
2023-01-05T10:06:57.390Z,100926.78
2023-01-05T10:09:31.415Z,100921.22
2023-01-05T10:12:18.526Z,100929.25
2023-01-05T10:14:48.279Z,100922.03
2023-01-05T10:20:15.583Z,100934.63
2023-01-05T10:22:51.051Z,100936.06
2023-01-05T10:25:23.220Z,100937.91
2023-01-05T10:27:57.035Z,100937.91
2023-01-05T10:30:26.767Z,100945.13
2023-01-05T10:36:01.571Z,100948.84
2023-01-05T10:38:38.924Z,100948.41
2023-01-05T10:41:14.871Z,100948.22
2023-01-05T10:43:53.784Z,100953.81
2023-01-05T10:46:33.862Z,100960.78
2023-01-05T10:49:07.605Z,100957.28
2023-01-05T10:51:37.332Z,100965.94
2023-01-05T10:54:06.670Z,100970.28
2023-01-05T10:56:34.444Z,100969.69
2023-01-05T10:59:09.243Z,100960.59
2023-01-05T11:01:39.537Z,100970.09
2023-01-05T11:04:33.887Z,100982.84
2023-01-05T11:07:06.885Z,100976.69
2023-01-05T11:09:40.697Z,100978.75
2023-01-05T11:12:18.312Z,100979.13
2023-01-05T11:14:53.349Z,100984.72
2023-01-05T11:17:26.489Z,100981.22
2023-01-05T11:19:57.278Z,100974.59
2023-01-05T11:22:32.730Z,100964.31
2023-01-05T11:25:23.708Z,100975.41
2023-01-05T11:28:20.687Z,100970.06
2023-01-05T11:30:59.676Z,100980.38
2023-01-05T11:33:29.672Z,100985.13
2023-01-05T11:35:59.403Z,100990.91
2023-01-05T11:38:29.070Z,100988.00
2023-01-05T11:40:59.006Z,100997.53
2023-01-05T11:43:29.369Z,100998.53
2023-01-05T11:45:59.899Z,100998.53
2023-01-05T11:48:29.724Z,100986.59
2023-01-05T11:50:59.617Z,100989.28
2023-01-05T11:53:37.996Z,100994.63
2023-01-05T11:56:11.461Z,100990.31
2023-01-05T11:58:44.234Z,100996.47
2023-01-05T12:01:49.268Z,100989.69
2023-01-05T12:04:30.415Z,100991.50
2023-01-05T12:07:20.794Z,100997.72
2023-01-05T12:09:53.377Z,101001.00
2023-01-05T12:12:30.399Z,100996.06
2023-01-05T12:15:36.485Z,101007.81
2023-01-05T12:18:14.931Z,101007.19
2023-01-05T12:20:53.865Z,101003.50
2023-01-05T12:23:56.221Z,101004.53
2023-01-05T12:26:27.789Z,101003.47
2023-01-05T12:30:43.291Z,101012.16
2023-01-05T12:35:38.080Z,101020.81
2023-01-05T12:38:27.742Z,101017.91
2023-01-05T12:41:09.563Z,101018.75
2023-01-05T12:43:46.996Z,101014.22
2023-01-05T12:46:24.423Z,101018.56
2023-01-05T12:48:56.185Z,101021.03
2023-01-05T12:51:27.903Z,101026.16
2023-01-05T12:53:58.846Z,101031.09
2023-01-05T12:56:30.755Z,101027.41
2023-01-05T12:59:14.669Z,101029.28
2023-01-05T13:01:56.220Z,101027.41
2023-01-05T13:04:41.263Z,101036.47
2023-01-05T13:07:17.666Z,101036.03
2023-01-05T13:09:46.552Z,101036.03
2023-01-05T13:12:16.793Z,101034.41
2023-01-05T13:14:52.732Z,101034.59
2023-01-05T13:17:25.901Z,101030.91
2023-01-05T13:20:01.812Z,101024.53
2023-01-05T13:22:31.815Z,101033.34
2023-01-05T13:25:02.426Z,101031.50
2023-01-05T13:27:32.385Z,101030.50
2023-01-05T13:30:01.654Z,101018.31
2023-01-05T13:32:46.056Z,101040.38
2023-01-05T13:35:31.574Z,101041.84
2023-01-05T13:38:33.293Z,101042.44
2023-01-05T13:41:11.168Z,101039.34
2023-01-05T13:44:23.633Z,101053.16
2023-01-05T13:47:01.737Z,101061.63
2023-01-05T13:49:40.134Z,101062.88
2023-01-05T13:52:11.391Z,101062.88
2023-01-05T13:54:49.390Z,101057.91
2023-01-05T13:57:24.536Z,101072.38
2023-01-05T14:00:04.655Z,101072.38
2023-01-05T14:02:38.859Z,101067.00
2023-01-05T14:05:10.898Z,101067.41
2023-01-05T14:07:40.696Z,101083.28
2023-01-05T14:10:21.682Z,101076.69
2023-01-05T14:12:50.588Z,101085.16
2023-01-05T14:15:42.508Z,101070.69
2023-01-05T14:18:12.702Z,101059.16
2023-01-05T14:20:44.667Z,101062.44
2023-01-05T14:23:49.804Z,101066.97
2023-01-05T14:26:17.863Z,101074.41
2023-01-05T14:28:50.118Z,101066.59
2023-01-05T14:31:37.932Z,101065.34
2023-01-05T14:34:09.597Z,101067.00
2023-01-05T14:36:39.374Z,101082.66
2023-01-05T14:39:08.728Z,101088.00
2023-01-05T14:41:36.653Z,101087.19
2023-01-05T14:44:06.234Z,101090.91
2023-01-05T14:46:47.988Z,101091.72
2023-01-05T14:49:30.947Z,101093.16
2023-01-05T14:52:00.372Z,101091.28
2023-01-05T14:55:27.161Z,101097.47
2023-01-05T14:58:02.335Z,101099.03
2023-01-05T15:00:40.449Z,101099.03
2023-01-05T15:03:20.658Z,101111.13
2023-01-05T15:05:56.104Z,101097.34
2023-01-05T15:08:34.591Z,101093.97
2023-01-05T15:11:19.823Z,101094.34
2023-01-05T15:14:19.075Z,101093.09
2023-01-05T15:17:01.090Z,101100.06
2023-01-05T15:19:43.079Z,101094.34
2023-01-05T15:22:37.949Z,101096.06
2023-01-05T15:25:27.832Z,101089.41
2023-01-05T15:28:05.828Z,101098.69
2023-01-05T15:30:55.190Z,101092.66
2023-01-05T15:33:32.563Z,101091.03
2023-01-05T15:36:04.318Z,101087.09
2023-01-05T15:38:45.386Z,101089.34
2023-01-05T15:41:15.274Z,101091.81
2023-01-05T15:43:44.090Z,101088.28
2023-01-05T15:46:12.505Z,101090.97
2023-01-05T15:48:42.979Z,101084.53
2023-01-05T15:51:12.574Z,101095.38
2023-01-05T15:53:44.329Z,101088.56
2023-01-05T15:56:26.868Z,101089.75
2023-01-05T15:58:54.754Z,101090.31
2023-01-05T16:01:23.246Z,101088.66
2023-01-05T16:03:51.479Z,101088.56
2023-01-05T16:06:21.526Z,101088.19
2023-01-05T16:08:52.537Z,101098.50
2023-01-05T16:11:25.437Z,101086.72
2023-01-05T16:13:56.202Z,101082.34
2023-01-05T16:16:51.339Z,101081.97
2023-01-05T16:19:30.009Z,101082.75
2023-01-05T16:21:59.747Z,101077.00
2023-01-05T16:24:33.720Z,101074.56
2023-01-05T16:27:03.963Z,101079.53
2023-01-05T16:29:35.195Z,101076.25
2023-01-05T16:32:03.150Z,101077.25
2023-01-05T16:34:31.641Z,101074.69
2023-01-05T16:37:01.122Z,101077.00
2023-01-05T16:39:34.655Z,101074.69
2023-01-05T16:42:40.636Z,101072.03
2023-01-05T16:45:10.613Z,101076.16
2023-01-05T16:47:40.043Z,101071.25
2023-01-05T16:50:51.622Z,101065.50
2023-01-05T16:53:19.645Z,101070.47
2023-01-05T16:55:48.809Z,101077.09
2023-01-05T16:58:39.469Z,101085.38
2023-01-05T17:01:27.827Z,101073.03
2023-01-05T17:03:55.858Z,101074.09
2023-01-05T17:06:26.874Z,101071.63
2023-01-05T17:08:55.586Z,101077.03
2023-01-05T17:11:36.040Z,101074.97
2023-01-05T17:14:04.425Z,101065.44
2023-01-05T17:16:32.231Z,101071.19
2023-01-05T17:19:02.198Z,101071.81
2023-01-05T17:21:31.854Z,101081.25
2023-01-05T17:24:00.933Z,101063.16
2023-01-05T17:26:31.603Z,101068.16
2023-01-05T17:31:30.793Z,101068.50
2023-01-05T17:33:58.723Z,101072.28
2023-01-05T17:36:29.702Z,101066.16
2023-01-05T17:38:57.435Z,101063.09
2023-01-05T17:41:25.308Z,101060.81
2023-01-05T17:43:54.619Z,101060.38
2023-01-05T17:46:39.690Z,101064.22
2023-01-05T17:49:07.654Z,101050.69
2023-01-05T17:51:35.366Z,101052.91
2023-01-05T17:54:03.070Z,101066.03
2023-01-05T17:59:05.109Z,101067.75
2023-01-05T18:01:33.997Z,101056.66
2023-01-05T18:04:02.038Z,101059.09
2023-01-05T18:06:30.174Z,101057.03
2023-01-05T18:08:57.940Z,101056.41
2023-01-05T18:11:25.699Z,101050.03
2023-01-05T18:13:53.274Z,101054.59
2023-01-05T18:16:22.206Z,101052.53
2023-01-05T18:18:49.953Z,101052.69
2023-01-05T18:21:19.445Z,101053.56
2023-01-05T18:23:47.379Z,101053.31
2023-01-05T18:26:16.190Z,101051.88
2023-01-05T18:28:44.151Z,101053.75
2023-01-05T18:31:13.269Z,101044.44
2023-01-05T18:33:42.809Z,101047.50
2023-01-05T18:36:14.244Z,101042.16
2023-01-05T18:38:42.963Z,101042.56
2023-01-05T18:41:10.713Z,101035.16
2023-01-05T18:43:38.632Z,101030.34
2023-01-05T18:46:06.785Z,101020.63
2023-01-05T18:48:34.644Z,101014.84
2023-01-05T18:51:07.969Z,101014.06
2023-01-05T18:53:37.889Z,101006.84
2023-01-05T18:56:07.356Z,100999.19
2023-01-05T18:58:35.746Z,100996.53
2023-01-05T19:01:08.857Z,100993.47
2023-01-05T19:03:36.857Z,100992.66
2023-01-05T19:06:08.239Z,100977.00
2023-01-05T19:08:36.255Z,100979.19
2023-01-05T19:11:12.276Z,100977.22
2023-01-05T19:13:41.329Z,100967.09
2023-01-05T19:16:09.855Z,100967.13
2023-01-05T19:18:37.704Z,100975.38
2023-01-05T19:21:06.766Z,100969.63
2023-01-05T19:23:34.452Z,100966.22
2023-01-05T19:26:03.499Z,100981.41
2023-01-05T19:28:31.463Z,100981.19
2023-01-05T19:31:06.734Z,100977.06
2023-01-05T19:33:34.556Z,100980.13
2023-01-05T19:36:03.639Z,100975.38
2023-01-05T19:38:34.147Z,100965.44
2023-01-05T19:41:06.876Z,100958.00
2023-01-05T19:43:35.222Z,100953.50
2023-01-05T19:46:06.833Z,100942.34
2023-01-05T19:48:37.230Z,100938.69
2023-01-05T19:51:06.819Z,100937.88
2023-01-05T19:53:37.600Z,100931.72
2023-01-05T19:56:06.429Z,100930.06
2023-01-05T19:58:35.012Z,100926.53
2023-01-05T20:01:06.767Z,100922.66
2023-01-05T20:03:34.705Z,100918.97
2023-01-05T20:06:07.246Z,100909.91
2023-01-05T20:08:36.854Z,100905.59
2023-01-05T20:11:08.397Z,100899.44
2023-01-05T20:13:36.321Z,100898.00
2023-01-05T20:16:05.933Z,100891.41
2023-01-05T20:18:34.201Z,100900.47
2023-01-05T20:21:03.064Z,100903.78
2023-01-05T20:23:33.940Z,100901.72
2023-01-05T20:26:08.299Z,100899.66
2023-01-05T20:28:36.513Z,100898.66
2023-01-05T20:31:05.385Z,100894.31
2023-01-05T20:33:33.399Z,100895.78
2023-01-05T20:36:01.164Z,100892.28
2023-01-05T20:38:28.947Z,100887.34
2023-01-05T20:40:56.764Z,100890.03
2023-01-05T20:43:25.811Z,100880.16
2023-01-05T20:45:53.728Z,100872.97
2023-01-05T20:48:21.718Z,100868.84
2023-01-05T20:50:49.309Z,100869.69
2023-01-05T20:53:16.832Z,100872.97
2023-01-05T20:55:46.448Z,100869.69
2023-01-05T20:58:14.207Z,100880.22
2023-01-05T21:01:10.519Z,100865.78
2023-01-05T21:03:31.079Z,100865.41
2023-01-05T21:05:58.912Z,100866.00
2023-01-05T21:08:26.603Z,100862.31
2023-01-05T21:10:55.828Z,100862.94
2023-01-05T21:13:32.159Z,100861.09
2023-01-05T21:16:06.394Z,100864.38
2023-01-05T21:18:34.620Z,100866.44
2023-01-05T21:21:05.912Z,100867.69
2023-01-05T21:23:33.616Z,100859.06
2023-01-05T21:26:06.292Z,100863.16
2023-01-05T21:28:35.959Z,100859.69
2023-01-05T21:31:07.142Z,100867.31
2023-01-05T21:33:36.218Z,100864.66
2023-01-05T21:36:04.061Z,100861.97
2023-01-05T21:39:01.648Z,100852.50
2023-01-05T21:41:40.049Z,100846.94
2023-01-05T21:44:10.341Z,100855.78
2023-01-05T21:46:41.157Z,100845.25
2023-01-05T21:49:09.982Z,100841.34
2023-01-05T21:51:54.986Z,100829.84
2023-01-05T21:54:40.489Z,100831.28
2023-01-05T21:57:08.463Z,100831.09
2023-01-05T21:59:37.339Z,100825.50
2023-01-05T22:02:06.506Z,100830.28
2023-01-05T22:04:34.382Z,100818.13
2023-01-05T22:07:02.246Z,100818.72
2023-01-05T22:09:30.111Z,100817.09
2023-01-05T22:11:57.863Z,100817.09
2023-01-05T22:14:25.667Z,100807.19
2023-01-05T22:16:53.361Z,100803.28
2023-01-05T22:19:22.618Z,100809.69
2023-01-05T22:21:50.197Z,100806.59
2023-01-05T22:24:17.995Z,100807.41
2023-01-05T22:26:45.945Z,100808.44
2023-01-05T22:29:33.492Z,100810.72
2023-01-05T22:32:02.747Z,100812.16
2023-01-05T22:34:33.235Z,100808.44
2023-01-05T22:37:00.981Z,100802.69
2023-01-05T22:39:28.758Z,100808.06
2023-01-05T22:42:10.619Z,100798.13
2023-01-05T22:44:38.510Z,100792.38
2023-01-05T22:47:06.595Z,100793.22
2023-01-05T22:49:35.695Z,100784.16
2023-01-05T22:52:04.110Z,100780.03
2023-01-05T22:54:33.721Z,100771.78
2023-01-05T22:57:01.465Z,100770.94
2023-01-05T22:59:29.039Z,100765.41
2023-01-05T23:01:57.026Z,100767.88
2023-01-05T23:04:25.113Z,100774.69
2023-01-05T23:06:54.425Z,100765.38
2023-01-05T23:09:22.648Z,100770.97
2023-01-05T23:11:50.348Z,100763.16
2023-01-05T23:14:19.304Z,100771.19
2023-01-05T23:17:01.373Z,100762.09
2023-01-05T23:19:29.150Z,100765.81
2023-01-05T23:21:58.402Z,100767.25
2023-01-05T23:24:26.198Z,100762.50
2023-01-05T23:26:55.881Z,100772.19
2023-01-05T23:29:25.069Z,100766.03
2023-01-05T23:31:54.204Z,100759.00
2023-01-05T23:34:21.718Z,100761.50
2023-01-05T23:36:49.712Z,100760.25
2023-01-05T23:39:18.931Z,100762.94
2023-01-05T23:41:46.870Z,100761.72
2023-01-05T23:44:15.147Z,100760.66
2023-01-05T23:46:42.680Z,100766.84
2023-01-05T23:49:10.696Z,100763.97
2023-01-05T23:51:38.260Z,100763.34
2023-01-05T23:54:05.940Z,100766.63
2023-01-05T23:56:35.257Z,100776.94
2023-01-05T23:59:05.730Z,100762.28
